ADDS METAR Data INFO
IDs: Format: Raw Decoded Include TAF

Data at: 1740 UTC 21 Sep 2017

KCRP 211651Z 16014G20KT 10SM FEW032 SCT045 SCT065 SCT170 BKN250 33/23 A2993 RMK AO2 SLP134 T03280233
KCRP 211551Z 17018KT 10SM SCT027 SCT042 SCT065 BKN170 BKN250 32/24 A2993 RMK AO2 SLP135 T03220239
KCRP 211451Z COR 16015KT 10SM FEW016 FEW027 SCT060 BKN250 30/24 A2993 RMK AO2 SLP133 TCU DSNT N NE T03000244 51009
KCRP 211351Z 14010KT 10SM FEW014 FEW020 FEW034 SCT170 BKN250 28/26 A2992 RMK AO2 SLP130 T02830261
KCRP 211251Z 14006KT 10SM FEW016 FEW190 BKN250 26/26 A2991 RMK AO2 SLP127 TCU DSNT SE T02610256
KCRP 211151Z 14006KT 10SM FEW016 FEW190 BKN250 26/25 A2990 RMK AO2 SLP124 TCU DSNT E SE T02610250 10278 20256 53002
KCRP 211051Z 15006KT 10SM FEW016 SCT250 26/25 A2989 RMK AO2 SLP120 T02610250
KCRP 210951Z 16007KT 10SM FEW016 BKN250 26/26 A2989 RMK AO2 SLP119 T02610256
KCRP 210851Z 16006KT 10SM FEW016 FEW180 BKN250 27/26 A2989 RMK AO2 SLP122 T02720256 58003
KCRP 210751Z 15009KT 10SM FEW015 FEW180 OVC250 27/26 A2990 RMK AO2 SLP124 T02720261
KCRP 210651Z 15010KT 10SM FEW015 FEW180 OVC250 27/26 A2991 RMK AO2 SLP127 T02720261
KCRP 210551Z 15010KT 10SM FEW015 FEW090 FEW180 OVC250 28/26 A2990 RMK AO2 SLP125 T02780261 10300 20272 403500250 50006
KCRP 210451Z 14009KT 10SM FEW014 FEW090 SCT180 BKN250 28/26 A2991 RMK AO2 SLP125 T02780261
KCRP 210351Z 15011KT 10SM FEW015 FEW090 SCT180 BKN250 28/26 A2991 RMK AO2 SLP125 T02780256
KCRP 210251Z 15010KT 10SM FEW015 FEW090 BKN250 28/26 A2989 RMK AO2 SLP118 T02830256 53015
KCRP 210151Z 14013KT 10SM FEW015 FEW090 BKN250 28/26 A2987 RMK AO2 SLP112 T02830256
KCRP 210051Z 14015KT 10SM FEW018 FEW090 FEW180 OVC250 29/26 A2985 RMK AO2 SLP107 T02890256
KCRP 202351Z 15016KT 10SM FEW020 SCT180 BKN250 30/25 A2984 RMK AO2 SLP103 T03000250 10350 20300 53001
KCRP 202251Z 13020KT 10SM FEW023 FEW030 SCT180 BKN250 32/24 A2983 RMK AO2 SLP101 T03170244
KCRP 202151Z 13018KT 10SM FEW029 FEW037 SCT180 BKN250 33/24 A2982 RMK AO2 SLP097 T03280244
KCRP 202051Z 14016KT 10SM SCT034 SCT045 BKN250 34/24 A2984 RMK AO2 SLP103 T03440244 58021
KCRP 201951Z 14015G21KT 10SM SCT036 SCT050 SCT200 BKN250 34/24 A2986 RMK AO2 SLP109 T03440239
KCRP 201851Z 14014G20KT 10SM SCT036 SCT200 BKN250 34/24 A2988 RMK AO2 SLP118 T03440239
KCRP 201751Z 18011G20KT 10SM SCT036 SCT045 BKN250 35/23 A2990 RMK AO2 SLP124 T03500233 10350 20256 58006
KCRP 201651Z 15016G20KT 10SM SCT034 SCT040 BKN250 34/23 A2992 RMK AO2 SLP130 T03390233
KCRP 201551Z 17016KT 10SM FEW024 SCT030 BKN250 32/23 A2993 RMK AO2 SLP132 T03220228
KCRP 201451Z 18015KT 10SM SCT024 SCT200 BKN250 31/24 A2992 RMK AO2 SLP130 T03060239 51015
KCRP 201351Z 17010KT 10SM FEW018 FEW170 BKN250 28/26 A2991 RMK AO2 SLP126 TCU DSNT NE SE T02830256
KCRP 201251Z 15005KT 10SM FEW016 FEW030 FEW170 BKN250 26/25 A2989 RMK AO2 SLP120 T02560250
KCRP 201151Z 15006KT 10SM FEW016 FEW029 FEW170 BKN250 26/25 A2987 RMK AO2 SLP114 T02560250 10272 20250 53003
KCRP 201051Z 15006KT 10SM FEW016 FEW027 BKN250 26/25 A2987 RMK AO2 SLP112 T02560250
KCRP 200951Z 16006KT 10SM FEW016 FEW025 BKN250 26/25 A2986 RMK AO2 SLP112 T02610250
KCRP 200851Z 16007KT 10SM FEW017 FEW025 BKN250 26/25 A2986 RMK AO2 SLP111 T02610250 50005
KCRP 200751Z 16007KT 10SM FEW017 SCT025 BKN250 26/25 A2987 RMK AO2 SLP115 T02610250
KCRP 200651Z 16007KT 10SM FEW016 FEW200 BKN250 27/26 A2988 RMK AO2 SLP115 T02720256
KCRP 200551Z COR 16015KT 10SM FEW016 FEW200 BKN250 27/26 A2985 RMK AO2 SLP106 T02720256 10294 20272 403500244 56005